Flight Track Log - Related Links

Times and Time Zones

All times are in EDT time to prevent confusion due to time zone crossing. See the N323RB flight status page for this flight to view local times or setup timezone preferences in your user account.

Time Position Orientation Groundspeed Altitude Reporting Facility
EDT Latitude Longitude Course Direction KTS MPH feet Rate Location/Type
Sun 03:29:17 PM 38.7333 -90.3333 142° Southeast 105 121 1,100  Level Gateway (St. Louis) TRACON
Sun 03:30:17 PM 38.7167 -90.3167 142° Southeast 113 130 1,800 700 Climbing Gateway (St. Louis) TRACON
Sun 03:31:17 PM 38.6833 -90.3000 159° South 124 143 2,500 750 Climbing Gateway (St. Louis) TRACON
Sun 03:32:17 PM 38.6500 -90.2833 159° South 120 138 3,300 750 Climbing Gateway (St. Louis) TRACON
Sun 03:33:17 PM 38.6167 -90.2667 159° South 123 142 4,000 650 Climbing Gateway (St. Louis) TRACON
Sun 03:34:17 PM 38.5833 -90.2500 159° South 128 147 4,600 550 Climbing Gateway (St. Louis) TRACON
Sun 03:35:17 PM 38.5500 -90.2333 159° South 137 158 5,100 400 Climbing Gateway (St. Louis) TRACON
Sun 03:36:17 PM 38.5167 -90.2167 159° South 145 167 5,400 409 Climbing Gateway (St. Louis) TRACON
Sun 03:37:29 PM 38.4811 -90.1692 134° Southeast 162 186 6,000 493 Climbing Kansas City Center
Sun 03:38:31 PM 38.4522 -90.1258 130° Southeast 162 186 6,500 384 Climbing Kansas City Center
Sun 03:39:34 PM 38.4247 -90.0853 131° Southeast 153 176 6,800 144 Climbing Kansas City Center
Sun 03:40:36 PM 38.3864 -90.0294 131° Southeast 167 192 6,800  Level Kansas City Center
Sun 03:41:37 PM 38.3550 -89.9814 130° Southeast 171 197 6,800  Level Kansas City Center
Sun 03:42:37 PM 38.3206 -89.9289 130° Southeast 177 204 6,800  Level Kansas City Center
Sun 03:43:41 PM 38.2889 -89.8817 131° Southeast 176 203 6,800  Level Kansas City Center
Sun 03:44:43 PM 38.2561 -89.8336 131° Southeast 177 204 6,800  Level Kansas City Center
Sun 03:45:43 PM 38.2217 -89.7825 131° Southeast 177 204 6,800  Level Kansas City Center
Sun 03:46:46 PM 38.1889 -89.7347 131° Southeast 177 204 6,800  Level Kansas City Center
Sun 03:47:48 PM 38.1575 -89.6864 130° Southeast 177 204 6,800  Level Kansas City Center
Sun 03:48:49 PM 38.1231 -89.6361 131° Southeast 177 204 6,800 49 Level Kansas City Center
Sun 03:49:51 PM 38.0917 -89.5903 131° Southeast 175 201 6,900 49 Climbing Kansas City Center
Sun 03:50:52 PM 38.0606 -89.5442 131° Southeast 174 200 6,900  Level Kansas City Center
Sun 03:51:53 PM 38.0272 -89.4953 131° Southeast 173 199 6,900  Level Kansas City Center
Sun 03:52:57 PM 37.9958 -89.4492 131° Southeast 172 198 6,900  Level Kansas City Center
Sun 03:53:58 PM 37.9642 -89.4039 132° Southeast 172 198 6,900  Level Kansas City Center
Sun 03:55:00 PM 37.9314 -89.3542 130° Southeast 172 198 6,900  Level Kansas City Center
Sun 03:56:01 PM 37.9000 -89.3083 131° Southeast 172 198 6,900  Level Kansas City Center
Sun 03:57:04 PM 37.8686 -89.2631 131° Southeast 172 198 6,900  Level Kansas City Center
Sun 03:58:04 PM 37.8358 -89.2153 131° Southeast 170 196 6,900  Level Kansas City Center
Sun 03:59:05 PM 37.8092 -89.1728 128° Southeast 169 194 6,900  Level Kansas City Center
Sun 04:00:07 PM 37.7778 -89.1283 132° Southeast 169 194 6,900  Level Kansas City Center
Sun 04:01:09 PM 37.7469 -89.0839 131° Southeast 169 194 6,900  Level Kansas City Center
Sun 04:02:12 PM 37.7164 -89.0403 132° Southeast 169 194 6,900 -48 Level Kansas City Center
Sun 04:03:13 PM 37.6797 -88.9869 131° Southeast 169 194 6,800  Descending Kansas City Center
Sun 04:04:16 PM 37.6506 -88.9419 129° Southeast 168 193 6,900 48 Climbing Kansas City Center
Sun 04:05:18 PM 37.6200 -88.8986 132° Southeast 167 192 6,900 48 Level Kansas City Center
Sun 04:06:21 PM 37.5892 -88.8567 133° Southeast 166 191 7,000 48 Climbing Memphis Center
Sun 04:07:23 PM 37.5597 -88.8156 132° Southeast 165 190 7,000  Level Memphis Center
Sun 04:08:25 PM 37.5222 -88.7597 130° Southeast 167 192 7,000  Level Memphis Center
Sun 04:09:27 PM 37.4925 -88.7178 132° Southeast 166 191 7,000  Level Memphis Center
Sun 04:10:29 PM 37.4619 -88.6733 131° Southeast 166 191 7,000  Level Memphis Center
Sun 04:11:31 PM 37.4292 -88.6275 132° Southeast 168 193 7,000  Level Memphis Center
Sun 04:12:33 PM 37.3992 -88.5819 130° Southeast 170 196 7,000  Level Memphis Center
Sun 04:13:35 PM 37.3678 -88.5386 132° Southeast 170 196 7,000  Level Memphis Center
Sun 04:14:37 PM 37.3267 -88.4942 139° Southeast 166 191 7,000  Level Memphis Center
Sun 04:15:39 PM 37.2869 -88.4686 153° Southeast 164 189 7,000  Level Memphis Center
Sun 04:16:41 PM 37.2467 -88.4422 152° Southeast 163 188 7,000  Level Memphis Center
Sun 04:17:43 PM 37.2131 -88.4033 137° Southeast 163 188 7,000  Level Memphis Center
Sun 04:18:45 PM 37.1814 -88.3614 133° Southeast 164 189 7,000  Level Memphis Center
Sun 04:19:47 PM 37.1522 -88.3156 129° Southeast 165 190 7,000  Level Memphis Center
Sun 04:20:12 PM 37.1342 -88.2914 133° Southeast 170 196 7,000  Level Memphis Center
Sun 04:20:43 PM 37.1200 -88.2700 130° Southeast 170 196 7,000  Level Memphis Center
Sun 04:21:43 PM 37.0878 -88.2222 130° Southeast 170 196 7,000  Level Memphis Center
Sun 04:22:44 PM 37.0572 -88.1769 130° Southeast 175 201 7,000  Level Memphis Center
Sun 04:23:54 PM 37.0258 -88.1181 124° Southeast 174 200 7,000  Level Memphis Center
Sun 04:24:56 PM 37.0044 -88.0594 115° Southeast 177 204 7,000  Level Memphis Center
Sun 04:25:52 PM 36.9833 -88.0056 116° Southeast 183 211 7,000  Level Memphis Center
Sun 04:26:52 PM 36.9614 -87.9450 114° Southeast 184 212 7,000  Level Memphis Center
Sun 04:27:47 PM 36.9417 -87.8953 116° Southeast 182 209 7,000  Level Memphis Center
Sun 04:28:02 PM 36.9372 -87.8858 120° Southeast 184 212 7,000  Level Memphis Center
Sun 04:28:47 PM 36.9175 -87.8372 117° Southeast 182 209 7,000  Level Memphis Center
Sun 04:29:04 PM 36.9139 -87.8303 123° Southeast 184 212 7,000  Level Memphis Center
Sun 04:29:48 PM 36.8956 -87.7822 115° Southeast 181 208 7,000  Level Memphis Center
Sun 04:30:06 PM 36.8883 -87.7633 116° Southeast 183 211 7,000  Level Memphis Center
Sun 04:30:43 PM 36.8733 -87.7297 119° Southeast 182 209 7,000 -97 Level Memphis Center
Sun 04:31:08 PM 36.8653 -87.7067 114° Southeast 183 211 6,900 -200 Descending Memphis Center
Sun 04:31:43 PM 36.8514 -87.6747 119° Southeast 186 214 6,800 -194 Descending Memphis Center
Sun 04:32:10 PM 36.8411 -87.6478 115° Southeast 185 213 6,700 -197 Descending Memphis Center
Sun 04:32:44 PM 36.8272 -87.6144 117° Southeast 187 215 6,600 -194 Descending Memphis Center
Sun 04:33:12 PM 36.8175 -87.5914 118° Southeast 185 213 6,500 -200 Descending Memphis Center
Sun 04:33:44 PM 36.8031 -87.5594 119° Southeast 186 214 6,400 -194 Descending Memphis Center
Sun 04:34:14 PM 36.7933 -87.5322 114° Southeast 186 214 6,300 -295 Descending Memphis Center
Sun 04:34:45 PM 36.7789 -87.4964 117° Southeast 187 215 6,100 -326 Descending Memphis Center
Sun 04:35:46 PM 36.7461 -87.4544 134° Southeast 180 207 5,800 -258 Descending Memphis Center
Sun 04:36:18 PM 36.7275 -87.4392 147° Southeast 179 206 5,700 -258 Descending Memphis Center
Sun 04:37:19 PM 36.6878 -87.3992 141° Southeast 177 204 5,400 -341 Descending Memphis Center
Sun 04:38:21 PM 36.6433 -87.3539 141° Southeast 178 205 5,000 -192 Descending Memphis Center
Sun 04:39:24 PM 36.6064 -87.3153 140° Southeast 177 204 5,000  Level Memphis Center
Sun 04:40:26 PM 36.5708 -87.2803 142° Southeast 169 194 5,000  Level Memphis Center
Sun 04:41:28 PM 36.5356 -87.2444 141° Southeast 166 191 5,000  Level Memphis Center
Sun 04:42:30 PM 36.5003 -87.2078 140° Southeast 166 191 5,000 -48 Level Memphis Center
Sun 04:43:32 PM 36.4706 -87.1639 130° Southeast 165 190 4,900 -242 Descending Memphis Center
Sun 04:44:34 PM 36.4411 -87.1133 126° Southeast 171 197 4,500 -387 Descending Memphis Center
Sun 04:45:36 PM 36.4075 -87.0561 126° Southeast 172 198 4,100 -387 Descending Memphis Center
Sun 04:46:38 PM 36.3792 -87.0083 126° Southeast 173 199 3,700 -387 Descending Memphis Center
Sun 04:47:40 PM 36.3511 -86.9606 126° Southeast 173 199 3,300 -339 Descending Memphis Center
Sun 04:48:42 PM 36.3231 -86.9133 126° Southeast 172 198 3,000 -290 Descending Memphis Center

Login

Don't have an account? Register now (free) for customized features, flight alerts, and more!